TimeEDT,TemperatureF,Dew PointF,Humidity,Sea Level PressureIn,VisibilityMPH,Wind Direction,Wind SpeedMPH,Gust SpeedMPH,PrecipitationIn,Events,Conditions,WindDirDegrees,DateUTC
12:53 AM,69.1,69.1,100,29.62,10.0,South,10.4,19.6,0.04,Rain,Light Rain,190,2012-09-09 04:53:00
1:37 AM,69.8,68.0,94,29.62,10.0,South,8.1,-,0.00,,Mostly Cloudy,190,2012-09-09 05:37:00
1:43 AM,69.8,68.0,94,29.63,10.0,South,11.5,-,0.00,,Mostly Cloudy,170,2012-09-09 05:43:00
1:53 AM,69.1,68.0,96,29.62,10.0,South,5.8,-,0.00,,Mostly Cloudy,180,2012-09-09 05:53:00
2:00 AM,68.0,68.0,100,29.63,10.0,SSW,3.5,-,N/A,,Mostly Cloudy,210,2012-09-09 06:00:00
2:12 AM,68.0,66.2,94,29.65,10.0,West,6.9,-,N/A,,Overcast,260,2012-09-09 06:12:00
2:21 AM,68.0,66.2,94,29.65,10.0,WSW,5.8,-,N/A,,Overcast,240,2012-09-09 06:21:00
2:53 AM,66.0,64.0,93,29.66,10.0,SW,5.8,-,N/A,,Mostly Cloudy,230,2012-09-09 06:53:00
3:53 AM,64.9,64.0,97,29.68,10.0,WSW,5.8,-,N/A,,Overcast,240,2012-09-09 07:53:00
4:53 AM,64.0,61.0,90,29.69,10.0,SW,3.5,-,0.00,Rain,Light Rain,220,2012-09-09 08:53:00
5:53 AM,63.0,60.1,90,29.69,10.0,Calm,Calm,-,0.00,,Mostly Cloudy,0,2012-09-09 09:53:00
6:53 AM,62.1,59.0,90,29.73,10.0,West,5.8,-,0.00,,Mostly Cloudy,280,2012-09-09 10:53:00
7:53 AM,59.0,54.0,83,29.77,10.0,NW,10.4,-,N/A,,Mostly Cloudy,310,2012-09-09 11:53:00
8:53 AM,60.1,53.1,78,29.81,10.0,NW,6.9,-,N/A,,Mostly Cloudy,320,2012-09-09 12:53:00
9:53 AM,61.0,53.1,75,29.81,10.0,NNW,5.8,-,N/A,,Mostly Cloudy,340,2012-09-09 13:53:00
10:53 AM,62.1,52.0,70,29.81,10.0,NW,6.9,-,N/A,,Mostly Cloudy,320,2012-09-09 14:53:00
11:53 AM,62.1,52.0,70,29.81,10.0,NNW,5.8,-,N/A,,Mostly Cloudy,330,2012-09-09 15:53:00
12:53 PM,63.0,52.0,67,29.82,10.0,NW,4.6,-,N/A,,Mostly Cloudy,320,2012-09-09 16:53:00
1:53 PM,64.0,53.1,67,29.81,10.0,Variable,5.8,-,N/A,,Mostly Cloudy,0,2012-09-09 17:53:00
2:53 PM,64.9,52.0,63,29.79,10.0,NW,9.2,-,N/A,,Mostly Cloudy,320,2012-09-09 18:53:00
3:53 PM,66.0,52.0,60,29.79,10.0,North,5.8,-,N/A,,Mostly Cloudy,360,2012-09-09 19:53:00
4:53 PM,64.9,53.1,65,29.81,10.0,NW,5.8,-,N/A,,Mostly Cloudy,320,2012-09-09 20:53:00
5:53 PM,64.4,53.6,68,29.82,10.0,North,5.8,-,N/A,,Mostly Cloudy,350,2012-09-09 21:53:00
6:53 PM,63.0,52.0,67,29.82,10.0,North,5.8,-,N/A,,Mostly Cloudy,360,2012-09-09 22:53:00
7:53 PM,57.9,53.1,84,29.83,10.0,North,4.6,-,N/A,,Mostly Cloudy,360,2012-09-09 23:53:00
8:53 PM,59.0,51.1,75,29.85,10.0,NNW,10.4,-,N/A,,Mostly Cloudy,340,2012-09-10 00:53:00
9:53 PM,57.0,50.0,77,29.86,10.0,Calm,Calm,-,N/A,,Mostly Cloudy,0,2012-09-10 01:53:00
10:53 PM,57.0,50.0,77,29.85,10.0,NE,3.5,-,N/A,,Mostly Cloudy,40,2012-09-10 02:53:00
11:53 PM,51.1,50.0,96,29.85,10.0,Calm,Calm,-,N/A,,Clear,0,2012-09-10 03:53:00